sensor_id;sensor_type;location;lat;lon;timestamp;P1;durP1;ratioP1;P2;durP2;ratioP2
81834;SDS011;71272;52.166;4.498;2023-07-29T00:00:21;4.90;;;2.13;;
81834;SDS011;71272;52.166;4.498;2023-07-29T00:02:47;4.22;;;1.80;;
81834;SDS011;71272;52.166;4.498;2023-07-29T00:05:12;7.67;;;1.93;;
81834;SDS011;71272;52.166;4.498;2023-07-29T00:07:37;5.20;;;1.80;;
81834;SDS011;71272;52.166;4.498;2023-07-29T00:10:03;4.93;;;1.80;;
81834;SDS011;71272;52.166;4.498;2023-07-29T00:12:29;7.15;;;1.70;;
81834;SDS011;71272;52.166;4.498;2023-07-29T00:14:54;4.67;;;2.00;;
81834;SDS011;71272;52.166;4.498;2023-07-29T00:17:20;4.50;;;2.10;;
81834;SDS011;71272;52.166;4.498;2023-07-29T00:19:45;7.13;;;2.10;;
81834;SDS011;71272;52.166;4.498;2023-07-29T00:22:11;5.35;;;1.73;;
81834;SDS011;71272;52.166;4.498;2023-07-29T00:24:37;5.43;;;1.95;;
81834;SDS011;71272;52.166;4.498;2023-07-29T00:27:02;4.40;;;1.67;;
81834;SDS011;71272;52.166;4.498;2023-07-29T00:29:31;3.70;;;1.95;;
81834;SDS011;71272;52.166;4.498;2023-07-29T00:31:56;5.65;;;1.73;;
81834;SDS011;71272;52.166;4.498;2023-07-29T00:34:22;6.28;;;1.70;;
81834;SDS011;71272;52.166;4.498;2023-07-29T00:36:47;6.07;;;2.10;;
81834;SDS011;71272;52.166;4.498;2023-07-29T00:39:12;8.00;;;2.13;;
81834;SDS011;71272;52.166;4.498;2023-07-29T00:41:38;6.47;;;2.20;;
81834;SDS011;71272;52.166;4.498;2023-07-29T00:44:03;7.30;;;2.00;;
81834;SDS011;71272;52.166;4.498;2023-07-29T00:46:28;4.95;;;2.30;;
81834;SDS011;71272;52.166;4.498;2023-07-29T00:48:54;4.57;;;2.25;;
81834;SDS011;71272;52.166;4.498;2023-07-29T00:51:20;9.00;;;2.25;;
81834;SDS011;71272;52.166;4.498;2023-07-29T00:53:46;6.35;;;2.15;;
81834;SDS011;71272;52.166;4.498;2023-07-29T00:56:11;7.03;;;1.80;;
81834;SDS011;71272;52.166;4.498;2023-07-29T00:58:37;9.73;;;2.45;;
81834;SDS011;71272;52.166;4.498;2023-07-29T01:01:03;7.60;;;1.70;;
81834;SDS011;71272;52.166;4.498;2023-07-29T01:03:28;5.70;;;1.80;;
81834;SDS011;71272;52.166;4.498;2023-07-29T01:08:51;6.38;;;1.80;;
81834;SDS011;71272;52.166;4.498;2023-07-29T01:14:52;5.82;;;2.53;;
81834;SDS011;71272;52.166;4.498;2023-07-29T01:17:15;7.35;;;2.53;;
81834;SDS011;71272;52.166;4.498;2023-07-29T01:19:57;9.13;;;1.70;;
81834;SDS011;71272;52.166;4.498;2023-07-29T01:22:28;5.88;;;2.03;;
81834;SDS011;71272;52.166;4.498;2023-07-29T01:24:56;5.88;;;1.83;;
81834;SDS011;71272;52.166;4.498;2023-07-29T01:27:21;5.93;;;1.92;;
81834;SDS011;71272;52.166;4.498;2023-07-29T01:29:47;3.60;;;1.83;;
81834;SDS011;71272;52.166;4.498;2023-07-29T01:32:17;6.13;;;1.73;;
81834;SDS011;71272;52.166;4.498;2023-07-29T01:35:07;4.43;;;1.90;;
81834;SDS011;71272;52.166;4.498;2023-07-29T01:37:40;3.95;;;1.80;;
81834;SDS011;71272;52.166;4.498;2023-07-29T01:42:33;3.40;;;1.85;;
81834;SDS011;71272;52.166;4.498;2023-07-29T01:44:59;6.55;;;1.85;;
81834;SDS011;71272;52.166;4.498;2023-07-29T01:47:24;7.18;;;2.50;;
81834;SDS011;71272;52.166;4.498;2023-07-29T01:49:50;4.47;;;2.10;;
81834;SDS011;71272;52.166;4.498;2023-07-29T01:52:15;6.15;;;2.13;;
81834;SDS011;71272;52.166;4.498;2023-07-29T01:54:41;7.53;;;2.63;;
81834;SDS011;71272;52.166;4.498;2023-07-29T01:57:06;4.80;;;2.10;;
81834;SDS011;71272;52.166;4.498;2023-07-29T01:59:31;8.80;;;2.77;;
81834;SDS011;71272;52.166;4.498;2023-07-29T02:01:57;7.65;;;2.20;;
81834;SDS011;71272;52.166;4.498;2023-07-29T02:04:22;8.00;;;2.33;;
81834;SDS011;71272;52.166;4.498;2023-07-29T02:06:47;7.03;;;2.55;;
81834;SDS011;71272;52.166;4.498;2023-07-29T02:09:13;7.70;;;2.27;;
81834;SDS011;71272;52.166;4.498;2023-07-29T02:11:38;5.43;;;2.10;;
81834;SDS011;71272;52.166;4.498;2023-07-29T02:14:03;5.30;;;2.30;;
81834;SDS011;71272;52.166;4.498;2023-07-29T02:16:29;4.93;;;2.20;;
81834;SDS011;71272;52.166;4.498;2023-07-29T02:18:54;6.55;;;2.35;;
81834;SDS011;71272;52.166;4.498;2023-07-29T02:21:19;7.83;;;3.00;;
81834;SDS011;71272;52.166;4.498;2023-07-29T02:23:45;9.57;;;2.30;;
81834;SDS011;71272;52.166;4.498;2023-07-29T02:26:10;5.20;;;2.10;;
81834;SDS011;71272;52.166;4.498;2023-07-29T02:28:36;5.28;;;2.10;;
81834;SDS011;71272;52.166;4.498;2023-07-29T02:31:17;8.53;;;2.90;;
81834;SDS011;71272;52.166;4.498;2023-07-29T02:33:46;6.20;;;2.95;;
81834;SDS011;71272;52.166;4.498;2023-07-29T02:36:12;6.00;;;2.40;;
81834;SDS011;71272;52.166;4.498;2023-07-29T02:38:39;7.68;;;2.67;;
81834;SDS011;71272;52.166;4.498;2023-07-29T02:41:05;7.70;;;2.88;;
81834;SDS011;71272;52.166;4.498;2023-07-29T02:43:31;5.10;;;2.40;;
81834;SDS011;71272;52.166;4.498;2023-07-29T02:45:56;7.22;;;2.45;;
81834;SDS011;71272;52.166;4.498;2023-07-29T02:48:22;8.02;;;2.72;;
81834;SDS011;71272;52.166;4.498;2023-07-29T02:50:47;6.60;;;2.58;;
81834;SDS011;71272;52.166;4.498;2023-07-29T02:53:12;12.02;;;3.05;;
81834;SDS011;71272;52.166;4.498;2023-07-29T02:55:41;6.68;;;2.45;;
81834;SDS011;71272;52.166;4.498;2023-07-29T02:58:07;5.93;;;2.42;;
81834;SDS011;71272;52.166;4.498;2023-07-29T03:00:32;8.98;;;2.90;;
81834;SDS011;71272;52.166;4.498;2023-07-29T03:02:58;5.78;;;2.72;;
81834;SDS011;71272;52.166;4.498;2023-07-29T03:05:24;8.07;;;2.90;;
81834;SDS011;71272;52.166;4.498;2023-07-29T03:07:49;9.65;;;3.65;;
81834;SDS011;71272;52.166;4.498;2023-07-29T03:10:15;10.03;;;3.80;;
81834;SDS011;71272;52.166;4.498;2023-07-29T03:12:40;6.50;;;3.10;;
81834;SDS011;71272;52.166;4.498;2023-07-29T03:15:06;7.80;;;2.85;;
81834;SDS011;71272;52.166;4.498;2023-07-29T03:17:31;7.72;;;2.95;;
81834;SDS011;71272;52.166;4.498;2023-07-29T03:19:57;6.57;;;2.63;;
81834;SDS011;71272;52.166;4.498;2023-07-29T03:22:23;8.63;;;2.85;;
81834;SDS011;71272;52.166;4.498;2023-07-29T03:24:48;10.93;;;4.13;;
81834;SDS011;71272;52.166;4.498;2023-07-29T03:27:13;10.63;;;3.10;;
81834;SDS011;71272;52.166;4.498;2023-07-29T03:29:40;8.05;;;2.83;;
81834;SDS011;71272;52.166;4.498;2023-07-29T03:32:06;6.55;;;3.03;;
81834;SDS011;71272;52.166;4.498;2023-07-29T03:34:32;5.97;;;2.50;;
81834;SDS011;71272;52.166;4.498;2023-07-29T03:36:59;6.90;;;2.92;;
81834;SDS011;71272;52.166;4.498;2023-07-29T03:39:26;7.47;;;2.88;;
81834;SDS011;71272;52.166;4.498;2023-07-29T03:41:51;7.57;;;3.25;;
81834;SDS011;71272;52.166;4.498;2023-07-29T03:44:16;13.33;;;3.90;;
81834;SDS011;71272;52.166;4.498;2023-07-29T03:46:43;15.00;;;3.30;;
81834;SDS011;71272;52.166;4.498;2023-07-29T03:49:08;10.68;;;2.88;;
81834;SDS011;71272;52.166;4.498;2023-07-29T03:51:33;8.10;;;3.10;;
81834;SDS011;71272;52.166;4.498;2023-07-29T03:53:59;8.23;;;3.25;;
81834;SDS011;71272;52.166;4.498;2023-07-29T03:56:25;8.13;;;3.60;;
81834;SDS011;71272;52.166;4.498;2023-07-29T03:58:50;8.07;;;2.60;;
81834;SDS011;71272;52.166;4.498;2023-07-29T04:01:16;7.85;;;2.67;;
81834;SDS011;71272;52.166;4.498;2023-07-29T04:03:42;5.72;;;2.28;;
81834;SDS011;71272;52.166;4.498;2023-07-29T04:06:07;10.87;;;2.83;;
81834;SDS011;71272;52.166;4.498;2023-07-29T04:08:32;7.18;;;2.35;;
81834;SDS011;71272;52.166;4.498;2023-07-29T04:10:58;7.77;;;2.50;;
81834;SDS011;71272;52.166;4.498;2023-07-29T04:13:23;7.07;;;2.30;;
81834;SDS011;71272;52.166;4.498;2023-07-29T04:15:49;7.13;;;2.85;;
81834;SDS011;71272;52.166;4.498;2023-07-29T04:18:14;6.60;;;2.87;;
81834;SDS011;71272;52.166;4.498;2023-07-29T04:20:39;6.77;;;2.67;;
81834;SDS011;71272;52.166;4.498;2023-07-29T04:23:05;12.55;;;2.90;;
81834;SDS011;71272;52.166;4.498;2023-07-29T04:25:30;9.13;;;3.30;;
81834;SDS011;71272;52.166;4.498;2023-07-29T04:27:55;10.80;;;2.57;;
81834;SDS011;71272;52.166;4.498;2023-07-29T04:30:22;11.30;;;2.80;;
81834;SDS011;71272;52.166;4.498;2023-07-29T04:32:48;7.40;;;2.58;;
81834;SDS011;71272;52.166;4.498;2023-07-29T04:35:13;10.67;;;3.00;;
81834;SDS011;71272;52.166;4.498;2023-07-29T04:37:39;7.78;;;3.03;;
81834;SDS011;71272;52.166;4.498;2023-07-29T04:40:05;11.38;;;2.80;;
81834;SDS011;71272;52.166;4.498;2023-07-29T04:42:31;8.90;;;3.10;;
81834;SDS011;71272;52.166;4.498;2023-07-29T04:44:56;7.63;;;3.15;;
81834;SDS011;71272;52.166;4.498;2023-07-29T04:47:22;9.45;;;3.30;;
81834;SDS011;71272;52.166;4.498;2023-07-29T04:49:48;7.65;;;2.50;;
81834;SDS011;71272;52.166;4.498;2023-07-29T04:52:13;11.27;;;3.38;;
81834;SDS011;71272;52.166;4.498;2023-07-29T04:54:39;7.47;;;3.15;;
81834;SDS011;71272;52.166;4.498;2023-07-29T04:57:05;7.53;;;2.65;;
81834;SDS011;71272;52.166;4.498;2023-07-29T04:59:30;10.80;;;2.92;;
81834;SDS011;71272;52.166;4.498;2023-07-29T05:01:56;7.50;;;2.60;;
81834;SDS011;71272;52.166;4.498;2023-07-29T05:04:21;8.48;;;2.83;;
81834;SDS011;71272;52.166;4.498;2023-07-29T05:06:47;12.15;;;2.78;;
81834;SDS011;71272;52.166;4.498;2023-07-29T05:09:16;10.82;;;2.95;;
81834;SDS011;71272;52.166;4.498;2023-07-29T05:11:43;8.20;;;2.95;;
81834;SDS011;71272;52.166;4.498;2023-07-29T05:14:10;9.32;;;3.20;;
81834;SDS011;71272;52.166;4.498;2023-07-29T05:16:36;8.55;;;3.05;;
81834;SDS011;71272;52.166;4.498;2023-07-29T05:19:01;6.47;;;3.20;;
81834;SDS011;71272;52.166;4.498;2023-07-29T05:21:26;9.27;;;3.00;;
81834;SDS011;71272;52.166;4.498;2023-07-29T05:23:52;12.97;;;3.83;;
81834;SDS011;71272;52.166;4.498;2023-07-29T05:26:17;7.95;;;3.15;;
81834;SDS011;71272;52.166;4.498;2023-07-29T05:28:42;6.80;;;3.37;;
81834;SDS011;71272;52.166;4.498;2023-07-29T05:31:08;10.43;;;3.17;;
81834;SDS011;71272;52.166;4.498;2023-07-29T05:33:33;7.77;;;2.83;;
81834;SDS011;71272;52.166;4.498;2023-07-29T05:35:58;7.00;;;2.60;;
81834;SDS011;71272;52.166;4.498;2023-07-29T05:38:23;8.87;;;3.10;;
81834;SDS011;71272;52.166;4.498;2023-07-29T05:40:49;7.57;;;3.30;;
81834;SDS011;71272;52.166;4.498;2023-07-29T05:43:14;9.03;;;3.43;;
81834;SDS011;71272;52.166;4.498;2023-07-29T05:45:40;8.40;;;2.80;;
81834;SDS011;71272;52.166;4.498;2023-07-29T05:48:05;10.85;;;3.13;;
81834;SDS011;71272;52.166;4.498;2023-07-29T05:50:30;8.30;;;2.80;;
81834;SDS011;71272;52.166;4.498;2023-07-29T05:52:56;10.15;;;3.08;;
81834;SDS011;71272;52.166;4.498;2023-07-29T05:55:21;7.53;;;2.95;;
81834;SDS011;71272;52.166;4.498;2023-07-29T05:57:47;8.50;;;3.07;;
81834;SDS011;71272;52.166;4.498;2023-07-29T06:00:12;10.53;;;3.27;;
81834;SDS011;71272;52.166;4.498;2023-07-29T06:02:37;11.77;;;3.67;;
81834;SDS011;71272;52.166;4.498;2023-07-29T06:05:03;11.82;;;2.97;;
81834;SDS011;71272;52.166;4.498;2023-07-29T06:07:29;11.35;;;2.85;;
81834;SDS011;71272;52.166;4.498;2023-07-29T06:09:55;10.43;;;2.72;;
81834;SDS011;71272;52.166;4.498;2023-07-29T06:12:21;6.45;;;2.33;;
81834;SDS011;71272;52.166;4.498;2023-07-29T06:14:46;6.00;;;2.20;;
81834;SDS011;71272;52.166;4.498;2023-07-29T06:17:11;6.90;;;2.27;;
81834;SDS011;71272;52.166;4.498;2023-07-29T06:19:37;7.88;;;2.40;;
81834;SDS011;71272;52.166;4.498;2023-07-29T06:22:03;6.53;;;2.55;;
81834;SDS011;71272;52.166;4.498;2023-07-29T06:24:30;8.73;;;2.03;;
81834;SDS011;71272;52.166;4.498;2023-07-29T06:26:55;10.33;;;2.37;;
81834;SDS011;71272;52.166;4.498;2023-07-29T06:29:20;7.27;;;2.30;;
81834;SDS011;71272;52.166;4.498;2023-07-29T06:31:46;5.53;;;2.00;;
81834;SDS011;71272;52.166;4.498;2023-07-29T06:34:11;6.70;;;1.73;;
81834;SDS011;71272;52.166;4.498;2023-07-29T06:36:37;5.95;;;1.83;;
81834;SDS011;71272;52.166;4.498;2023-07-29T06:39:02;6.40;;;2.03;;
81834;SDS011;71272;52.166;4.498;2023-07-29T06:41:28;7.63;;;2.80;;
81834;SDS011;71272;52.166;4.498;2023-07-29T06:43:53;6.20;;;1.83;;
81834;SDS011;71272;52.166;4.498;2023-07-29T06:46:18;7.37;;;2.20;;
81834;SDS011;71272;52.166;4.498;2023-07-29T06:48:44;6.67;;;2.17;;
81834;SDS011;71272;52.166;4.498;2023-07-29T06:51:09;4.57;;;1.57;;
81834;SDS011;71272;52.166;4.498;2023-07-29T06:53:34;8.25;;;2.08;;
81834;SDS011;71272;52.166;4.498;2023-07-29T06:56:00;11.27;;;2.00;;
81834;SDS011;71272;52.166;4.498;2023-07-29T06:58:25;6.60;;;2.40;;
81834;SDS011;71272;52.166;4.498;2023-07-29T07:00:50;5.45;;;1.63;;
81834;SDS011;71272;52.166;4.498;2023-07-29T07:03:16;6.40;;;2.10;;
81834;SDS011;71272;52.166;4.498;2023-07-29T07:05:41;9.33;;;2.07;;
81834;SDS011;71272;52.166;4.498;2023-07-29T07:08:06;8.47;;;1.67;;
81834;SDS011;71272;52.166;4.498;2023-07-29T07:10:32;6.63;;;1.70;;
81834;SDS011;71272;52.166;4.498;2023-07-29T07:12:58;3.75;;;1.30;;
81834;SDS011;71272;52.166;4.498;2023-07-29T07:15:24;6.38;;;1.67;;
81834;SDS011;71272;52.166;4.498;2023-07-29T07:17:50;8.07;;;2.10;;
81834;SDS011;71272;52.166;4.498;2023-07-29T07:20:16;4.53;;;1.50;;
81834;SDS011;71272;52.166;4.498;2023-07-29T07:22:41;5.30;;;1.73;;
81834;SDS011;71272;52.166;4.498;2023-07-29T07:25:07;5.55;;;1.60;;
81834;SDS011;71272;52.166;4.498;2023-07-29T07:27:32;5.65;;;1.63;;
81834;SDS011;71272;52.166;4.498;2023-07-29T07:29:58;5.53;;;1.40;;
81834;SDS011;71272;52.166;4.498;2023-07-29T07:32:23;6.27;;;1.80;;
81834;SDS011;71272;52.166;4.498;2023-07-29T07:34:48;5.50;;;1.57;;
81834;SDS011;71272;52.166;4.498;2023-07-29T07:37:14;4.90;;;1.20;;
81834;SDS011;71272;52.166;4.498;2023-07-29T07:39:39;7.55;;;1.92;;
81834;SDS011;71272;52.166;4.498;2023-07-29T07:42:05;5.28;;;1.30;;
81834;SDS011;71272;52.166;4.498;2023-07-29T07:44:30;5.18;;;1.30;;
81834;SDS011;71272;52.166;4.498;2023-07-29T07:46:56;15.43;;;3.55;;
81834;SDS011;71272;52.166;4.498;2023-07-29T07:49:21;6.67;;;1.80;;
81834;SDS011;71272;52.166;4.498;2023-07-29T07:51:47;9.20;;;2.28;;
81834;SDS011;71272;52.166;4.498;2023-07-29T07:54:12;8.37;;;2.00;;
81834;SDS011;71272;52.166;4.498;2023-07-29T07:56:37;8.10;;;1.87;;
81834;SDS011;71272;52.166;4.498;2023-07-29T07:59:03;7.17;;;2.00;;
81834;SDS011;71272;52.166;4.498;2023-07-29T08:01:33;12.48;;;2.25;;
81834;SDS011;71272;52.166;4.498;2023-07-29T08:04:00;6.47;;;1.88;;
81834;SDS011;71272;52.166;4.498;2023-07-29T08:06:26;5.50;;;1.92;;
81834;SDS011;71272;52.166;4.498;2023-07-29T08:08:51;7.47;;;1.90;;
81834;SDS011;71272;52.166;4.498;2023-07-29T08:11:16;10.60;;;2.33;;
81834;SDS011;71272;52.166;4.498;2023-07-29T08:13:42;11.70;;;2.30;;
81834;SDS011;71272;52.166;4.498;2023-07-29T08:16:07;7.07;;;1.50;;
81834;SDS011;71272;52.166;4.498;2023-07-29T08:18:32;5.80;;;1.60;;
81834;SDS011;71272;52.166;4.498;2023-07-29T08:20:58;4.67;;;1.67;;
81834;SDS011;71272;52.166;4.498;2023-07-29T08:23:28;7.95;;;2.15;;
81834;SDS011;71272;52.166;4.498;2023-07-29T08:25:55;3.92;;;1.67;;
81834;SDS011;71272;52.166;4.498;2023-07-29T08:28:26;7.80;;;1.73;;
81834;SDS011;71272;52.166;4.498;2023-07-29T08:30:52;5.13;;;1.55;;
81834;SDS011;71272;52.166;4.498;2023-07-29T08:33:17;5.70;;;2.23;;
81834;SDS011;71272;52.166;4.498;2023-07-29T08:35:42;7.78;;;1.90;;
81834;SDS011;71272;52.166;4.498;2023-07-29T08:38:08;9.23;;;2.50;;
81834;SDS011;71272;52.166;4.498;2023-07-29T08:40:34;5.60;;;1.80;;
81834;SDS011;71272;52.166;4.498;2023-07-29T08:43:05;5.07;;;1.67;;
81834;SDS011;71272;52.166;4.498;2023-07-29T08:45:33;6.93;;;1.80;;
81834;SDS011;71272;52.166;4.498;2023-07-29T08:48:00;9.13;;;2.00;;
81834;SDS011;71272;52.166;4.498;2023-07-29T08:50:28;5.53;;;1.67;;
81834;SDS011;71272;52.166;4.498;2023-07-29T08:52:57;6.32;;;1.90;;
81834;SDS011;71272;52.166;4.498;2023-07-29T08:55:24;7.10;;;1.80;;
81834;SDS011;71272;52.166;4.498;2023-07-29T08:57:49;7.15;;;1.85;;
81834;SDS011;71272;52.166;4.498;2023-07-29T09:00:15;8.23;;;2.30;;
81834;SDS011;71272;52.166;4.498;2023-07-29T09:02:40;6.13;;;1.77;;
81834;SDS011;71272;52.166;4.498;2023-07-29T09:05:06;6.73;;;1.67;;
81834;SDS011;71272;52.166;4.498;2023-07-29T09:07:32;5.47;;;1.60;;
81834;SDS011;71272;52.166;4.498;2023-07-29T09:10:01;7.43;;;2.38;;
81834;SDS011;71272;52.166;4.498;2023-07-29T09:12:26;7.72;;;2.10;;
81834;SDS011;71272;52.166;4.498;2023-07-29T09:14:52;6.37;;;2.23;;
81834;SDS011;71272;52.166;4.498;2023-07-29T09:17:18;6.32;;;2.03;;
81834;SDS011;71272;52.166;4.498;2023-07-29T09:19:47;9.15;;;1.80;;
81834;SDS011;71272;52.166;4.498;2023-07-29T09:22:19;6.03;;;1.67;;
81834;SDS011;71272;52.166;4.498;2023-07-29T09:24:45;6.72;;;1.83;;
81834;SDS011;71272;52.166;4.498;2023-07-29T09:27:24;9.32;;;2.55;;
81834;SDS011;71272;52.166;4.498;2023-07-29T09:29:53;6.57;;;2.25;;
81834;SDS011;71272;52.166;4.498;2023-07-29T09:32:20;8.07;;;2.17;;
81834;SDS011;71272;52.166;4.498;2023-07-29T09:34:46;8.48;;;2.17;;
81834;SDS011;71272;52.166;4.498;2023-07-29T09:37:31;8.40;;;2.40;;
81834;SDS011;71272;52.166;4.498;2023-07-29T09:39:57;7.50;;;2.00;;
81834;SDS011;71272;52.166;4.498;2023-07-29T09:42:22;5.43;;;2.20;;
81834;SDS011;71272;52.166;4.498;2023-07-29T09:44:48;6.38;;;2.17;;
81834;SDS011;71272;52.166;4.498;2023-07-29T09:47:21;8.60;;;2.42;;
81834;SDS011;71272;52.166;4.498;2023-07-29T09:52:20;7.63;;;2.13;;
81834;SDS011;71272;52.166;4.498;2023-07-29T09:54:46;7.03;;;2.00;;
81834;SDS011;71272;52.166;4.498;2023-07-29T09:57:16;5.93;;;2.15;;
81834;SDS011;71272;52.166;4.498;2023-07-29T09:59:43;8.43;;;1.67;;
81834;SDS011;71272;52.166;4.498;2023-07-29T10:02:10;7.18;;;1.65;;
81834;SDS011;71272;52.166;4.498;2023-07-29T10:04:43;4.72;;;2.03;;
81834;SDS011;71272;52.166;4.498;2023-07-29T10:07:12;6.05;;;1.88;;
81834;SDS011;71272;52.166;4.498;2023-07-29T10:09:38;5.60;;;1.98;;
81834;SDS011;71272;52.166;4.498;2023-07-29T10:12:05;6.25;;;2.40;;
81834;SDS011;71272;52.166;4.498;2023-07-29T10:14:31;6.25;;;1.90;;
81834;SDS011;71272;52.166;4.498;2023-07-29T10:16:57;9.90;;;2.00;;
81834;SDS011;71272;52.166;4.498;2023-07-29T10:19:24;8.57;;;2.53;;
81834;SDS011;71272;52.166;4.498;2023-07-29T10:21:50;6.20;;;2.10;;
81834;SDS011;71272;52.166;4.498;2023-07-29T10:24:18;8.43;;;2.13;;
81834;SDS011;71272;52.166;4.498;2023-07-29T10:26:49;7.95;;;1.70;;
81834;SDS011;71272;52.166;4.498;2023-07-29T10:29:14;11.63;;;2.45;;
81834;SDS011;71272;52.166;4.498;2023-07-29T10:31:46;8.85;;;2.20;;
81834;SDS011;71272;52.166;4.498;2023-07-29T10:34:12;11.57;;;2.33;;
81834;SDS011;71272;52.166;4.498;2023-07-29T10:36:39;5.28;;;1.92;;
81834;SDS011;71272;52.166;4.498;2023-07-29T10:39:06;5.35;;;2.40;;
81834;SDS011;71272;52.166;4.498;2023-07-29T10:49:42;5.63;;;1.90;;
81834;SDS011;71272;52.166;4.498;2023-07-29T10:52:08;4.03;;;1.52;;
81834;SDS011;71272;52.166;4.498;2023-07-29T10:54:43;4.50;;;1.52;;
81834;SDS011;71272;52.166;4.498;2023-07-29T10:57:12;3.92;;;1.35;;
81834;SDS011;71272;52.166;4.498;2023-07-29T10:59:42;4.55;;;1.23;;
81834;SDS011;71272;52.166;4.498;2023-07-29T11:02:20;4.97;;;1.10;;
81834;SDS011;71272;52.166;4.498;2023-07-29T11:04:52;4.07;;;1.20;;
81834;SDS011;71272;52.166;4.498;2023-07-29T11:15:22;5.28;;;1.17;;
81834;SDS011;71272;52.166;4.498;2023-07-29T11:17:53;3.22;;;1.20;;
81834;SDS011;71272;52.166;4.498;2023-07-29T11:20:24;6.68;;;2.13;;
81834;SDS011;71272;52.166;4.498;2023-07-29T11:22:50;14.18;;;2.80;;
81834;SDS011;71272;52.166;4.498;2023-07-29T11:25:16;10.75;;;2.15;;
81834;SDS011;71272;52.166;4.498;2023-07-29T11:27:43;3.63;;;1.30;;
81834;SDS011;71272;52.166;4.498;2023-07-29T11:30:09;4.85;;;1.20;;
81834;SDS011;71272;52.166;4.498;2023-07-29T11:32:37;2.13;;;1.13;;
81834;SDS011;71272;52.166;4.498;2023-07-29T11:35:13;6.22;;;1.90;;
81834;SDS011;71272;52.166;4.498;2023-07-29T11:37:41;6.05;;;2.05;;
81834;SDS011;71272;52.166;4.498;2023-07-29T11:40:09;6.47;;;1.85;;
81834;SDS011;71272;52.166;4.498;2023-07-29T11:42:35;9.63;;;1.88;;
81834;SDS011;71272;52.166;4.498;2023-07-29T11:45:02;5.65;;;2.00;;
81834;SDS011;71272;52.166;4.498;2023-07-29T11:47:30;6.20;;;2.15;;
81834;SDS011;71272;52.166;4.498;2023-07-29T11:49:58;5.45;;;1.83;;
81834;SDS011;71272;52.166;4.498;2023-07-29T11:52:25;7.50;;;2.00;;
81834;SDS011;71272;52.166;4.498;2023-07-29T11:54:52;5.65;;;1.60;;
81834;SDS011;71272;52.166;4.498;2023-07-29T11:57:18;5.22;;;1.80;;
81834;SDS011;71272;52.166;4.498;2023-07-29T11:59:44;3.20;;;1.45;;
81834;SDS011;71272;52.166;4.498;2023-07-29T12:02:12;4.65;;;1.50;;
81834;SDS011;71272;52.166;4.498;2023-07-29T12:04:40;6.07;;;1.70;;
81834;SDS011;71272;52.166;4.498;2023-07-29T12:07:07;5.05;;;1.60;;
81834;SDS011;71272;52.166;4.498;2023-07-29T12:09:36;5.88;;;1.67;;
81834;SDS011;71272;52.166;4.498;2023-07-29T12:12:03;5.68;;;1.60;;
81834;SDS011;71272;52.166;4.498;2023-07-29T12:14:29;7.10;;;1.70;;
81834;SDS011;71272;52.166;4.498;2023-07-29T12:16:54;5.67;;;1.60;;
81834;SDS011;71272;52.166;4.498;2023-07-29T12:19:23;7.60;;;1.70;;
81834;SDS011;71272;52.166;4.498;2023-07-29T12:21:50;3.40;;;1.30;;
81834;SDS011;71272;52.166;4.498;2023-07-29T12:24:15;2.60;;;1.30;;
81834;SDS011;71272;52.166;4.498;2023-07-29T12:26:41;3.33;;;1.20;;
81834;SDS011;71272;52.166;4.498;2023-07-29T12:29:16;3.55;;;1.48;;
81834;SDS011;71272;52.166;4.498;2023-07-29T12:31:45;3.25;;;1.30;;
81834;SDS011;71272;52.166;4.498;2023-07-29T12:36:49;4.32;;;1.15;;
81834;SDS011;71272;52.166;4.498;2023-07-29T12:39:34;2.75;;;1.10;;
81834;SDS011;71272;52.166;4.498;2023-07-29T12:42:01;3.47;;;1.23;;
81834;SDS011;71272;52.166;4.498;2023-07-29T12:44:32;6.35;;;1.38;;
81834;SDS011;71272;52.166;4.498;2023-07-29T12:47:02;2.80;;;0.95;;
81834;SDS011;71272;52.166;4.498;2023-07-29T12:49:29;4.65;;;1.40;;
81834;SDS011;71272;52.166;4.498;2023-07-29T12:51:59;3.78;;;1.88;;
81834;SDS011;71272;52.166;4.498;2023-07-29T12:54:24;4.57;;;1.38;;
81834;SDS011;71272;52.166;4.498;2023-07-29T12:56:50;5.53;;;1.30;;
81834;SDS011;71272;52.166;4.498;2023-07-29T12:59:15;4.22;;;1.15;;
81834;SDS011;71272;52.166;4.498;2023-07-29T13:01:41;4.00;;;1.20;;
81834;SDS011;71272;52.166;4.498;2023-07-29T13:04:06;4.50;;;1.23;;
81834;SDS011;71272;52.166;4.498;2023-07-29T13:06:32;5.78;;;1.40;;
81834;SDS011;71272;52.166;4.498;2023-07-29T13:08:57;4.37;;;1.60;;
81834;SDS011;71272;52.166;4.498;2023-07-29T13:11:22;2.90;;;1.47;;
81834;SDS011;71272;52.166;4.498;2023-07-29T13:13:48;3.92;;;1.25;;
81834;SDS011;71272;52.166;4.498;2023-07-29T13:16:13;7.20;;;1.60;;
81834;SDS011;71272;52.166;4.498;2023-07-29T13:18:38;5.32;;;2.22;;
81834;SDS011;71272;52.166;4.498;2023-07-29T13:21:04;5.55;;;1.52;;
81834;SDS011;71272;52.166;4.498;2023-07-29T13:23:29;4.53;;;1.53;;
81834;SDS011;71272;52.166;4.498;2023-07-29T13:25:55;4.68;;;1.60;;
81834;SDS011;71272;52.166;4.498;2023-07-29T13:30:46;3.57;;;1.33;;
81834;SDS011;71272;52.166;4.498;2023-07-29T13:33:12;3.42;;;1.50;;
81834;SDS011;71272;52.166;4.498;2023-07-29T13:35:37;4.57;;;1.77;;
81834;SDS011;71272;52.166;4.498;2023-07-29T13:38:03;4.03;;;1.60;;
81834;SDS011;71272;52.166;4.498;2023-07-29T13:40:28;4.40;;;1.83;;
81834;SDS011;71272;52.166;4.498;2023-07-29T13:42:54;3.00;;;1.30;;
81834;SDS011;71272;52.166;4.498;2023-07-29T13:45:20;6.18;;;1.30;;
81834;SDS011;71272;52.166;4.498;2023-07-29T13:47:46;4.30;;;1.45;;
81834;SDS011;71272;52.166;4.498;2023-07-29T13:50:11;3.85;;;1.50;;
81834;SDS011;71272;52.166;4.498;2023-07-29T13:52:37;6.35;;;1.52;;
81834;SDS011;71272;52.166;4.498;2023-07-29T13:55:03;4.13;;;1.20;;
81834;SDS011;71272;52.166;4.498;2023-07-29T13:57:29;3.72;;;1.50;;
81834;SDS011;71272;52.166;4.498;2023-07-29T13:59:55;3.42;;;1.20;;
81834;SDS011;71272;52.166;4.498;2023-07-29T14:02:20;3.43;;;1.93;;
81834;SDS011;71272;52.166;4.498;2023-07-29T14:04:45;5.37;;;1.50;;
81834;SDS011;71272;52.166;4.498;2023-07-29T14:07:11;3.73;;;1.10;;
81834;SDS011;71272;52.166;4.498;2023-07-29T14:09:36;5.72;;;1.83;;
81834;SDS011;71272;52.166;4.498;2023-07-29T14:12:03;4.85;;;2.03;;
81834;SDS011;71272;52.166;4.498;2023-07-29T14:14:29;5.15;;;1.83;;
81834;SDS011;71272;52.166;4.498;2023-07-29T14:16:54;6.13;;;1.90;;
81834;SDS011;71272;52.166;4.498;2023-07-29T14:19:20;7.15;;;1.60;;
81834;SDS011;71272;52.166;4.498;2023-07-29T14:21:45;4.57;;;1.90;;
81834;SDS011;71272;52.166;4.498;2023-07-29T14:24:10;5.50;;;1.80;;
81834;SDS011;71272;52.166;4.498;2023-07-29T14:26:36;5.57;;;2.07;;
81834;SDS011;71272;52.166;4.498;2023-07-29T14:29:01;5.90;;;2.03;;
81834;SDS011;71272;52.166;4.498;2023-07-29T14:31:26;5.60;;;1.93;;
81834;SDS011;71272;52.166;4.498;2023-07-29T14:33:52;5.70;;;1.70;;
81834;SDS011;71272;52.166;4.498;2023-07-29T14:36:17;7.30;;;1.88;;
81834;SDS011;71272;52.166;4.498;2023-07-29T14:38:42;6.57;;;1.70;;
81834;SDS011;71272;52.166;4.498;2023-07-29T14:41:08;5.53;;;2.00;;
81834;SDS011;71272;52.166;4.498;2023-07-29T14:43:33;4.30;;;1.50;;
81834;SDS011;71272;52.166;4.498;2023-07-29T14:45:59;4.70;;;1.40;;
81834;SDS011;71272;52.166;4.498;2023-07-29T14:48:24;5.57;;;1.60;;
81834;SDS011;71272;52.166;4.498;2023-07-29T14:50:50;5.65;;;1.50;;
81834;SDS011;71272;52.166;4.498;2023-07-29T14:53:15;6.67;;;1.60;;
81834;SDS011;71272;52.166;4.498;2023-07-29T14:55:40;6.37;;;1.67;;
81834;SDS011;71272;52.166;4.498;2023-07-29T14:58:06;5.40;;;1.57;;
81834;SDS011;71272;52.166;4.498;2023-07-29T15:00:31;5.63;;;1.63;;
81834;SDS011;71272;52.166;4.498;2023-07-29T15:02:56;7.88;;;1.95;;
81834;SDS011;71272;52.166;4.498;2023-07-29T15:05:22;7.60;;;1.77;;
81834;SDS011;71272;52.166;4.498;2023-07-29T15:07:47;4.77;;;1.90;;
81834;SDS011;71272;52.166;4.498;2023-07-29T15:10:16;4.38;;;2.08;;
81834;SDS011;71272;52.166;4.498;2023-07-29T15:12:43;5.10;;;1.80;;